KGLS/GLS METAR and TAF weather

Enter ICAO airport designator
Station Type Date Time Source
KGLS METAR 2021/09/25 03:52 UTC NOAA

KGLS 250352Z AUTO 11005KT 10SM CLR 23/13 A3008 RMK AO2 SLP184 T02330128


Station Type Date Time Source
KGLS Decoded METAR 2021/09/25 03:52 UTC NOAA

SCHOLES FIELD, TX, United States (KGLS) 29-16N 094-52W 6M
Sep 24, 2021 - 11:52 PM EDT / 2021.09.25 0352 UTC
Wind: from the ESE (110 degrees) at 6 MPH (5 KT):0
Visibility: 10 mile(s):0
Sky conditions: clear
Temperature: 73.9 F (23.3 C)
Dew Point: 55.0 F (12.8 C)
Relative Humidity: 51%
Pressure (altimeter): 30.08 in. Hg (1018 hPa)
ob: KGLS 250352Z AUTO 11005KT 10SM CLR 23/13 A3008 RMK AO2 SLP184 T02330128
cycle: 4

Station Type Date Time Source
KGLS TAF 2021/09/24 18:38 UTC NOAA

TAF KGLS 241732Z 2418/2518 07011KT P6SM FEW050
FM242200 10010KT P6SM SKC
FM250600 11008KT P6SM FEW030 FEW250
FM251300 07006KT P6SM FEW029 FEW250

Example: see airport list